Time;durP1;ratioP1;P1;durP2;ratioP2;P2;SDS_P1;SDS_P2;PMS_P1;PMS_P2;Temp;Humidity;BMP_temperature;BMP_pressure;BME280_temperature;BME280_humidity;BME280_pressure;Samples;Min_cycle;Max_cycle;Signal;HPM_P1;HPM_P2
2021/03/18 00:01:42;;;;;;;10.47;7.07;;;;;;;;;;5040804;28;20194;-75
2021/03/18 00:04:09;;;;;;;8.40;7.00;;;;;;;;;;5042111;28;20206;-75
2021/03/18 00:06:35;;;;;;;10.30;7.33;;;;;;;;;;5039501;28;20229;-76
2021/03/18 00:09:01;;;;;;;8.87;6.57;;;;;;;;;;5024408;28;20196;-76
2021/03/18 00:11:27;;;;;;;10.03;6.70;;;;;;;;;;5041862;28;20205;-77
2021/03/18 00:13:53;;;;;;;9.40;6.53;;;;;;;;;;5039028;28;20187;-78
2021/03/18 00:16:19;;;;;;;12.33;7.27;;;;;;;;;;5039546;28;20235;-76
2021/03/18 00:18:46;;;;;;;8.37;6.53;;;;;;;;;;5040041;28;20188;-77
2021/03/18 00:21:12;;;;;;;9.73;6.47;;;;;;;;;;5042303;28;20248;-78
2021/03/18 00:23:38;;;;;;;9.47;7.00;;;;;;;;;;5039421;28;20236;-76
2021/03/18 00:26:04;;;;;;;9.20;6.67;;;;;;;;;;5040224;28;20171;-75
2021/03/18 00:28:30;;;;;;;8.10;6.67;;;;;;;;;;5039377;28;20184;-76
2021/03/18 00:30:56;;;;;;;10.37;6.80;;;;;;;;;;5040849;28;20216;-75
2021/03/18 00:33:22;;;;;;;13.07;7.67;;;;;;;;;;5028168;28;20183;-76
2021/03/18 00:35:48;;;;;;;9.23;6.70;;;;;;;;;;5054992;28;20199;-75
2021/03/18 00:38:14;;;;;;;9.50;7.03;;;;;;;;;;5054589;28;20184;-75
2021/03/18 00:40:44;;;;;;;8.57;6.83;;;;;;;;;;5054398;28;20209;-75
2021/03/18 00:43:11;;;;;;;10.50;7.10;;;;;;;;;;5054477;28;20234;-75
2021/03/18 00:45:38;;;;;;;10.57;7.33;;;;;;;;;;5055494;28;20201;-75
2021/03/18 00:48:04;;;;;;;10.37;7.63;;;;;;;;;;5054377;28;20180;-75
2021/03/18 00:50:42;;;;;;;12.80;7.30;;;;;;;;;;5054350;28;20647;-75
2021/03/18 00:53:09;;;;;;;13.70;7.43;;;;;;;;;;5055580;28;20672;-76
2021/03/18 00:55:35;;;;;;;9.63;7.13;;;;;;;;;;5055404;28;20196;-75
2021/03/18 00:58:01;;;;;;;10.50;7.50;;;;;;;;;;5054261;28;20208;-75
2021/03/18 01:00:37;;;;;;;8.97;7.50;;;;;;;;;;5037405;28;20806;-77
2021/03/18 01:03:02;;;;;;;11.87;7.83;;;;;;;;;;5054239;28;20220;-76
2021/03/18 01:05:30;;;;;;;14.03;8.07;;;;;;;;;;5053907;28;20183;-76
2021/03/18 01:07:56;;;;;;;9.00;8.00;;;;;;;;;;5054456;28;20546;-77
2021/03/18 01:10:22;;;;;;;13.30;7.93;;;;;;;;;;5054068;28;20205;-77
2021/03/18 01:12:48;;;;;;;11.50;7.80;;;;;;;;;;5054168;28;20210;-79
2021/03/18 01:15:14;;;;;;;12.60;8.60;;;;;;;;;;5053804;28;20264;-78
2021/03/18 01:17:40;;;;;;;11.63;8.23;;;;;;;;;;5053859;28;20182;-80
2021/03/18 01:20:08;;;;;;;11.60;8.43;;;;;;;;;;5053947;28;20237;-77
2021/03/18 01:22:34;;;;;;;12.70;8.70;;;;;;;;;;5054902;28;20205;-76
2021/03/18 01:25:00;;;;;;;15.13;8.30;;;;;;;;;;5053936;28;20269;-77
2021/03/18 01:27:26;;;;;;;11.67;8.00;;;;;;;;;;5054819;28;20205;-77
2021/03/18 01:29:52;;;;;;;11.50;8.53;;;;;;;;;;5053884;28;20183;-77
2021/03/18 01:32:18;;;;;;;12.60;7.20;;;;;;;;;;5055033;28;20210;-77
2021/03/18 01:34:44;;;;;;;10.43;6.90;;;;;;;;;;5053507;28;20174;-76
2021/03/18 01:37:10;;;;;;;14.87;7.27;;;;;;;;;;5054764;28;20178;-77
2021/03/18 01:39:36;;;;;;;16.10;7.73;;;;;;;;;;5053478;28;20312;-76
2021/03/18 01:42:02;;;;;;;11.50;6.90;;;;;;;;;;5053316;28;20206;-75
2021/03/18 01:44:28;;;;;;;13.27;7.33;;;;;;;;;;5052335;28;20200;-76
2021/03/18 01:46:54;;;;;;;9.93;6.60;;;;;;;;;;5054728;28;20669;-76
2021/03/18 01:49:20;;;;;;;12.80;6.97;;;;;;;;;;5054804;28;20647;-77
2021/03/18 01:51:46;;;;;;;11.10;6.87;;;;;;;;;;5054628;28;20219;-78
2021/03/18 01:54:13;;;;;;;13.67;7.20;;;;;;;;;;5036747;28;20277;-76
2021/03/18 01:56:39;;;;;;;11.33;7.40;;;;;;;;;;5053232;28;20185;-78
2021/03/18 01:59:05;;;;;;;11.10;7.07;;;;;;;;;;5054309;28;20212;-76
2021/03/18 02:01:31;;;;;;;15.53;7.07;;;;;;;;;;5053165;28;20227;-75
2021/03/18 02:03:57;;;;;;;10.83;7.10;;;;;;;;;;5053088;28;20764;-77
2021/03/18 02:06:23;;;;;;;13.90;7.37;;;;;;;;;;5053271;28;20271;-76
2021/03/18 02:08:49;;;;;;;12.63;6.90;;;;;;;;;;5053074;28;20176;-75
2021/03/18 02:11:14;;;;;;;12.77;6.50;;;;;;;;;;5036271;28;20235;-76
2021/03/18 02:13:40;;;;;;;9.77;6.57;;;;;;;;;;5053043;28;20182;-75
2021/03/18 02:16:15;;;;;;;11.13;6.67;;;;;;;;;;5052912;28;20307;-76
2021/03/18 02:18:47;;;;;;;10.13;7.20;;;;;;;;;;5054054;28;20187;-76
2021/03/18 02:21:13;;;;;;;12.07;6.50;;;;;;;;;;5052817;28;20594;-76
2021/03/18 02:23:58;;;;;;;11.43;6.40;;;;;;;;;;5054082;28;20233;-75
2021/03/18 02:26:33;;;;;;;11.37;6.33;;;;;;;;;;5053948;28;20175;-78
2021/03/18 02:29:25;;;;;;;13.20;6.33;;;;;;;;;;5053911;28;20255;-76
2021/03/18 02:31:56;;;;;;;12.53;6.30;;;;;;;;;;5023414;28;20233;-76
2021/03/18 02:34:28;;;;;;;11.40;6.00;;;;;;;;;;5052360;28;20189;-77
2021/03/18 02:37:04;;;;;;;10.83;5.80;;;;;;;;;;5053786;28;20192;-77
2021/03/18 02:39:35;;;;;;;10.07;5.87;;;;;;;;;;5035953;28;20212;-78
2021/03/18 02:42:03;;;;;;;12.07;6.30;;;;;;;;;;5052461;28;20202;-76
2021/03/18 02:44:29;;;;;;;12.17;6.17;;;;;;;;;;5052103;28;20192;-77
2021/03/18 02:47:11;;;;;;;9.90;6.67;;;;;;;;;;5052313;28;20316;-76
2021/03/18 02:49:39;;;;;;;12.07;6.17;;;;;;;;;;5052426;28;20257;-76
2021/03/18 02:52:06;;;;;;;9.77;6.50;;;;;;;;;;5052321;28;20202;-76
2021/03/18 02:54:31;;;;;;;8.73;6.03;;;;;;;;;;5052070;28;20177;-77
2021/03/18 02:56:58;;;;;;;10.40;6.63;;;;;;;;;;5052125;28;20556;-77
2021/03/18 02:59:27;;;;;;;13.33;6.37;;;;;;;;;;5052165;28;20208;-79
2021/03/18 03:01:53;;;;;;;10.57;6.13;;;;;;;;;;5051976;28;20281;-77
2021/03/18 03:04:19;;;;;;;10.03;6.03;;;;;;;;;;5051966;28;20623;-77
2021/03/18 03:06:45;;;;;;;14.33;6.50;;;;;;;;;;5052135;28;20188;-76
2021/03/18 03:09:11;;;;;;;10.70;6.73;;;;;;;;;;5051805;28;20214;-77
2021/03/18 03:11:38;;;;;;;13.33;6.83;;;;;;;;;;5035182;28;20198;-78
2021/03/18 03:14:04;;;;;;;9.80;6.60;;;;;;;;;;5051683;28;20196;-76
2021/03/18 03:16:30;;;;;;;10.07;6.33;;;;;;;;;;5034949;28;20193;-76
2021/03/18 03:18:56;;;;;;;10.87;6.37;;;;;;;;;;5031937;28;20187;-76
2021/03/18 03:21:22;;;;;;;9.30;6.20;;;;;;;;;;5031891;28;20190;-77
2021/03/18 03:23:48;;;;;;;9.93;6.57;;;1.20;99.90;;;;;;5031935;28;20179;-76
2021/03/18 03:26:16;;;;;;;13.27;6.20;;;1.20;99.90;;;;;;5015152;28;20265;-75
2021/03/18 03:28:41;;;;;;;12.07;6.50;;;1.00;99.90;;;;;;5033096;28;20656;-77
2021/03/18 03:31:07;;;;;;;8.00;6.17;;;0.90;99.90;;;;;;5015246;28;20206;-78
2021/03/18 03:33:34;;;;;;;11.30;6.50;;;0.80;99.90;;;;;;5032815;28;20643;-77
2021/03/18 03:35:59;;;;;;;10.37;6.30;;;0.70;99.90;;;;;;5031489;28;20189;-78
2021/03/18 03:38:25;;;;;;;14.53;6.30;;;0.70;99.90;;;;;;5032762;28;20646;-78
2021/03/18 03:40:51;;;;;;;12.37;6.90;;;0.60;99.90;;;;;;4998534;28;20245;-77
2021/03/18 03:43:17;;;;;;;12.17;6.67;;;0.60;99.90;;;;;;5015029;28;20193;-78
2021/03/18 03:45:43;;;;;;;15.33;6.43;;;;;;;;;;4998480;28;20178;-79
2021/03/18 03:48:09;;;;;;;14.43;7.60;;;1.20;99.90;;;;;;5031310;28;20179;-78
2021/03/18 03:50:34;;;;;;;10.97;7.03;;;0.60;99.90;;;;;;5015008;28;20473;-78
2021/03/18 03:53:23;;;;;;;15.93;6.90;;;0.50;99.90;;;;;;5014605;28;20194;-78
2021/03/18 03:55:58;;;;;;;14.90;6.67;;;0.50;99.90;;;;;;5015795;28;20180;-77
2021/03/18 03:58:25;;;;;;;12.10;6.23;;;;;;;;;;5015638;28;20738;-75
2021/03/18 04:00:53;;;;;;;14.77;6.73;;;0.40;99.90;;;;;;5030906;28;20261;-77
2021/03/18 04:03:19;;;;;;;15.30;6.80;;;;;;;;;;5014935;28;20671;-77
2021/03/18 04:05:46;;;;;;;10.57;6.60;;;;;;;;;;5030893;28;20181;-77
2021/03/18 04:08:15;;;;;;;10.00;6.90;;;;;;;;;;5030514;28;20635;-77
2021/03/18 04:10:43;;;;;;;16.87;7.63;;;;;;;;;;5014684;28;20207;-77
2021/03/18 04:13:10;;;;;;;17.37;8.17;;;0.80;99.90;;;;;;5031038;28;20220;-78
2021/03/18 04:15:37;;;;;;;28.60;8.97;;;;;;;;;;5030950;28;20178;-75
2021/03/18 04:18:03;;;;;;;16.83;9.37;;;;;;;;;;5030884;28;20604;-76
2021/03/18 04:20:30;;;;;;;21.60;9.27;;;;;;;;;;5030921;28;20202;-77
2021/03/18 04:22:57;;;;;;;29.60;11.30;;;;;;;;;;5030863;28;20175;-79
2021/03/18 04:25:23;;;;;;;31.97;12.63;;;;;;;;;;5030806;28;20182;-76
2021/03/18 04:27:49;;;;;;;30.57;11.53;;;;;;;;;;5030902;28;20206;-78
2021/03/18 04:30:15;;;;;;;32.47;12.23;;;;;;;;;;5030976;28;20709;-75
2021/03/18 04:32:41;;;;;;;27.53;11.33;;;;;;;;;;5013904;28;20706;-76
2021/03/18 04:35:08;;;;;;;19.80;11.07;;;;;;;;;;5030580;28;20215;-75
2021/03/18 04:37:34;;;;;;;24.30;11.10;;;;;;;;;;5030725;28;20681;-76
2021/03/18 04:40:00;;;;;;;22.57;11.00;;;;;;;;;;5030837;28;20417;-76
2021/03/18 04:42:28;;;;;;;23.67;11.43;;;;;;;;;;5030538;28;20609;-76
2021/03/18 04:44:54;;;;;;;20.40;10.80;;;;;;;;;;5030520;28;20250;-78
2021/03/18 04:47:20;;;;;;;22.77;10.77;;;;;;;;;;5030576;28;20209;-77
2021/03/18 04:49:46;;;;;;;22.93;11.70;;;;;;;;;;5030658;28;20189;-78
2021/03/18 04:52:13;;;;;;;27.20;10.67;;;1.50;99.90;;;;;;5014035;28;20601;-74
2021/03/18 04:54:40;;;;;;;23.13;10.20;;;;;;;;;;4997740;28;20182;-77
2021/03/18 04:57:06;;;;;;;20.27;8.87;;;;;;;;;;5030448;28;20230;-76
2021/03/18 04:59:32;;;;;;;20.13;9.73;;;;;;;;;;5030558;28;20556;-76
2021/03/18 05:01:58;;;;;;;28.17;9.70;;;;;;;;;;5030350;28;20284;-77
2021/03/18 05:04:24;;;;;;;23.90;11.47;;;;;;;;;;5013759;28;20639;-77
2021/03/18 05:06:50;;;;;;;24.53;11.10;;;;;;;;;;5030466;28;20651;-76
2021/03/18 05:09:16;;;;;;;23.33;10.27;;;;;;;;;;5030504;28;20182;-76
2021/03/18 05:11:43;;;;;;;22.07;10.60;;;;;;;;;;5013821;28;20258;-76
2021/03/18 05:14:09;;;;;;;22.03;10.33;;;;;;;;;;5030394;28;20179;-77
2021/03/18 05:16:35;;;;;;;20.73;10.57;;;;;;;;;;5031420;28;20636;-76
2021/03/18 05:19:01;;;;;;;24.23;10.50;;;1.60;99.90;;;;;;5030283;28;20662;-78
2021/03/18 05:21:29;;;;;;;24.53;11.10;;;1.60;99.90;;;;;;5017405;28;20195;-78
2021/03/18 05:23:54;;;;;;;29.33;12.60;;;1.60;99.90;;;;;;5034000;28;20261;-76
2021/03/18 05:26:20;;;;;;;27.50;12.63;;;1.50;99.90;;;;;;5001167;28;20275;-74
2021/03/18 05:28:46;;;;;;;25.80;12.17;;;1.60;99.90;;;;;;5033889;28;20178;-77
2021/03/18 05:31:12;;;;;;;28.03;12.13;;;1.60;99.90;;;;;;5017130;28;20220;-77
2021/03/18 05:33:37;;;;;;;27.67;12.77;;;1.60;99.90;;;;;;5087627;22;20230;-74
2021/03/18 05:36:03;;;;;;;28.53;12.63;;;1.70;99.90;;;;;;5040394;28;20666;-76
2021/03/18 05:38:28;;;;;;;25.13;10.73;;;1.80;99.90;;;;;;5074859;28;20511;-76
2021/03/18 05:40:56;;;;;;;21.97;10.30;;;1.80;99.90;;;;;;5057042;28;20215;-77
2021/03/18 05:43:23;;;;;;;23.10;10.83;;;1.90;99.90;;;;;;5057230;28;20620;-75
2021/03/18 05:45:49;;;;;;;23.60;10.97;;;1.80;99.90;;;;;;5053716;28;20189;-75
2021/03/18 05:48:15;;;;;;;25.77;11.17;;;1.80;99.90;;;;;;5039351;28;20182;-76
2021/03/18 05:50:41;;;;;;;22.30;11.10;;;1.80;99.90;;;;;;5053673;28;20194;-83
2021/03/18 05:53:07;;;;;;;21.57;11.03;;;1.80;99.90;;;;;;5058910;28;20194;-83
2021/03/18 05:55:32;;;;;;;22.03;10.87;;;1.90;99.90;;;;;;5043202;28;20177;-82
2021/03/18 05:57:58;;;;;;;26.83;11.30;;;1.90;99.90;;;;;;5051713;28;20182;-82
2021/03/18 06:00:24;;;;;;;23.73;11.30;;;2.00;99.90;;;;;;5061206;28;20275;-82
2021/03/18 06:02:50;;;;;;;25.00;12.17;;;2.00;99.90;;;;;;5055146;28;20209;-83
2021/03/18 06:05:16;;;;;;;22.47;11.40;;;2.00;99.90;;;;;;5024347;28;20232;-84
2021/03/18 06:07:43;;;;;;;24.03;11.53;;;2.20;99.90;;;;;;5052210;28;20205;-83
2021/03/18 06:10:10;;;;;;;26.67;10.97;;;2.10;99.90;;;;;;5040864;28;20181;-82
2021/03/18 06:12:37;;;;;;;27.37;11.63;;;2.10;99.90;;;;;;5057144;28;20609;-83
2021/03/18 06:15:07;;;;;;;25.20;11.37;;;2.10;99.90;;;;;;5040511;28;20174;-83
2021/03/18 06:17:33;;;;;;;24.87;11.53;;;2.20;99.90;;;;;;5040204;28;20739;-84
2021/03/18 06:19:59;;;;;;;17.97;11.20;;;2.20;99.90;;;;;;5057055;28;20217;-83
2021/03/18 06:22:36;;;;;;;27.87;11.43;;;2.30;99.90;;;;;;5058688;28;20196;-80
2021/03/18 06:25:04;;;;;;;25.23;11.87;;;2.30;99.90;;;;;;5062933;28;20173;-80
2021/03/18 06:27:29;;;;;;;24.20;11.90;;;2.50;99.90;;;;;;5047730;28;20180;-77
2021/03/18 06:29:55;;;;;;;21.67;11.30;;;2.40;99.90;;;;;;5049663;28;20174;-86
2021/03/18 06:32:21;;;;;;;23.53;11.97;;;2.50;99.90;;;;;;5053908;28;20289;-83
2021/03/18 06:34:58;;;;;;;25.77;12.30;;;2.60;99.90;;;;;;5038562;28;20181;-83
2021/03/18 06:37:34;;;;;;;26.87;13.40;;;2.60;99.90;;;;;;5039918;28;20197;-84
2021/03/18 06:40:05;;;;;;;28.77;14.00;;;2.70;99.90;;;;;;5038884;28;20246;-84
2021/03/18 06:42:32;;;;;;;28.97;13.80;;;2.90;99.90;;;;;;5057357;28;20188;-84
2021/03/18 06:45:14;;;;;;;29.60;13.53;;;2.90;99.90;;;;;;5040308;28;20178;-76
2021/03/18 06:47:52;;;;;;;21.93;11.63;;;3.00;99.90;;;;;;5040314;28;20166;-77
2021/03/18 06:50:23;;;;;;;20.70;12.57;;;3.00;99.90;;;;;;5054421;28;20182;-78
2021/03/18 06:52:48;;;;;;;25.10;12.27;;;2.90;99.90;;;;;;5037370;28;20200;-76
2021/03/18 06:55:32;;;;;;;24.43;12.07;;;3.00;99.90;;;;;;5041485;28;20275;-75
2021/03/18 06:58:21;;;;;;;24.87;11.00;;;2.90;99.90;;;;;;5072291;28;20192;-77
2021/03/18 07:00:48;;;;;;;22.77;10.70;;;3.00;99.90;;;;;;5056019;28;20198;-76
2021/03/18 07:03:38;;;;;;;22.77;11.20;;;3.00;99.90;;;;;;5050645;28;20244;-79
2021/03/18 07:06:06;;;;;;;19.57;11.33;;;3.10;99.90;;;;;;5053873;28;20188;-78
2021/03/18 07:08:39;;;;;;;22.17;11.13;;;3.10;99.90;;;;;;5060124;28;20196;-75
2021/03/18 07:11:18;;;;;;;17.57;10.23;;;3.40;99.90;;;;;;5043483;28;20606;-76
2021/03/18 07:13:44;;;;;;;22.77;10.33;;;3.40;99.90;;;;;;5068027;28;20221;-76
2021/03/18 07:16:10;;;;;;;25.30;10.80;;;3.50;99.90;;;;;;5076477;28;20228;-78
2021/03/18 07:18:36;;;;;;;17.03;9.40;;;3.50;99.90;;;;;;5041904;28;20185;-80
2021/03/18 07:21:13;;;;;;;18.40;10.00;;;3.50;99.90;;;;;;5056434;28;20605;-76
2021/03/18 07:23:40;;;;;;;18.63;9.47;;;3.50;99.90;;;;;;5043905;28;20204;-78
2021/03/18 07:26:20;;;;;;;17.67;9.53;;;3.60;99.90;;;;;;5036482;28;20170;-77
2021/03/18 07:28:50;;;;;;;16.77;9.80;;;3.70;99.90;;;;;;5053059;28;20170;-77
2021/03/18 07:31:16;;;;;;;16.93;9.37;;;3.70;99.90;;;;;;5053854;28;20222;-78
2021/03/18 07:33:43;;;;;;;20.67;10.33;;;3.40;99.90;;;;;;5053480;28;20742;-79
2021/03/18 07:36:09;;;;;;;19.30;10.13;;;3.60;99.90;;;;;;5054017;28;20560;-78
2021/03/18 07:38:36;;;;;;;23.07;10.67;;;3.50;99.90;;;;;;5037062;28;20181;-78
2021/03/18 07:41:02;;;;;;;20.97;10.30;;;;;;;;;;5054929;28;20201;-77
2021/03/18 07:43:28;;;;;;;22.37;10.60;;;3.70;99.90;;;;;;5061750;28;20222;-79
2021/03/18 07:45:53;;;;;;;21.20;9.93;;;3.80;99.90;;;;;;5051474;28;20174;-78
2021/03/18 07:48:20;;;;;;;20.37;10.40;;;3.70;99.90;;;;;;5069880;28;20540;-79
2021/03/18 07:50:46;;;;;;;18.57;9.90;;;3.70;99.90;;;;;;5033788;28;20223;-78
2021/03/18 07:53:11;;;;;;;19.63;10.13;;;3.70;99.90;;;;;;5053025;28;20251;-77
2021/03/18 07:55:37;;;;;;;18.27;9.87;;;3.80;99.90;;;;;;5054145;28;20196;-76
2021/03/18 07:58:02;;;;;;;18.57;10.77;;;3.90;99.90;;;;;;5037776;28;20185;-77
2021/03/18 08:00:32;;;;;;;21.07;11.23;;;3.90;99.90;;;;;;5050711;28;20206;-78
2021/03/18 08:03:28;;;;;;;20.73;10.57;;;4.00;99.90;;;;;;5046787;28;20203;-78
2021/03/18 08:05:54;;;;;;;21.03;10.47;;;;;;;;;;5048668;28;20280;-78
2021/03/18 08:08:49;;;;;;;19.63;10.17;;;;;;;;;;5054657;28;20185;-79
2021/03/18 08:11:16;;;;;;;22.30;10.10;;;;;;;;;;5058285;28;20181;-79
2021/03/18 08:13:43;;;;;;;18.70;9.90;;;;;;;;;;5071694;28;20195;-81
2021/03/18 08:16:10;;;;;;;17.60;9.87;;;;;;;;;;5051851;28;20181;-80
2021/03/18 08:18:36;;;;;;;22.83;10.13;;;;;;;;;;5052789;28;20175;-81
2021/03/18 08:21:03;;;;;;;23.60;11.23;;;;;;;;;;5051279;28;20674;-80
2021/03/18 08:23:29;;;;;;;22.50;11.87;;;;;;;;;;5034342;28;20202;-79
2021/03/18 08:25:59;;;;;;;25.23;11.73;;;;;;;;;;5071687;28;20268;-81
2021/03/18 08:28:34;;;;;;;27.37;12.57;;;;;;;;;;5046105;28;20191;-81
2021/03/18 08:31:00;;;;;;;25.20;11.67;;;;;;;;;;5072301;28;20196;-81
2021/03/18 08:33:32;;;;;;;26.60;13.27;;;;;;;;;;5042899;28;20315;-82
2021/03/18 08:36:17;;;;;;;28.30;13.43;;;;;;;;;;5053937;28;20603;-82
2021/03/18 08:38:43;;;;;;;29.47;14.10;;;;;;;;;;5052664;28;20181;-81
2021/03/18 08:41:09;;;;;;;35.10;15.10;;;;;;;;;;5053493;28;20205;-83
2021/03/18 08:43:55;;;;;;;31.20;15.37;;;;;;;;;;5036569;28;20287;-82
2021/03/18 08:47:00;;;;;;;33.27;16.40;;;;;;;;;;5063003;28;20205;-81
2021/03/18 08:49:28;;;;;;;33.83;15.47;;;;;;;;;;5016550;28;20195;-80
2021/03/18 08:51:54;;;;;;;31.97;17.00;;;;;;;;;;4997671;28;20188;-80
2021/03/18 08:54:44;;;;;;;37.00;16.10;;;;;;;;;;5015805;28;20292;-79
2021/03/18 08:57:11;;;;;;;33.53;16.47;;;;;;;;;;5054849;28;20238;-79
2021/03/18 08:59:38;;;;;;;36.20;15.77;;;;;;;;;;5054720;28;20201;-80
2021/03/18 09:02:04;;;;;;;34.50;16.53;;;;;;;;;;5054908;28;20277;-76
2021/03/18 09:04:40;;;;;;;39.70;18.20;;;;;;;;;;5055707;28;20261;-79
2021/03/18 09:07:06;;;;;;;29.20;14.33;;;;;;;;;;5054472;28;20257;-77
2021/03/18 09:09:32;;;;;;;30.60;15.17;;;;;;;;;;5067564;28;20185;-78
2021/03/18 09:11:58;;;;;;;35.53;16.57;;;;;;;;;;5057723;28;20192;-75
2021/03/18 09:14:24;;;;;;;32.57;16.37;;;;;;;;;;5074391;28;20183;-74
2021/03/18 09:16:50;;;;;;;32.67;17.07;;;;;;;;;;5075462;28;20185;-75
2021/03/18 09:19:16;;;;;;;31.77;15.30;;;;;;;;;;5057556;28;20192;-75
2021/03/18 09:21:43;;;;;;;30.43;15.17;;;;;;;;;;5075354;28;20665;-75
2021/03/18 09:24:10;;;;;;;32.73;14.77;;;;;;;;;;5057881;28;20195;-75
2021/03/18 09:26:36;;;;;;;29.83;15.07;;;;;;;;;;5073823;28;20231;-75
2021/03/18 09:29:02;;;;;;;35.80;16.77;;;;;;;;;;5073460;28;20190;-75
2021/03/18 09:31:28;;;;;;;34.40;15.93;;;;;;;;;;5073526;28;20258;-74
2021/03/18 09:33:55;;;;;;;31.67;15.00;;;;;;;;;;5067158;28;20234;-76
2021/03/18 09:36:24;;;;;;;35.03;17.13;;;;;;;;;;5069799;28;20178;-77
2021/03/18 09:39:00;;;;;;;33.43;16.93;;;;;;;;;;5067711;28;20262;-78
2021/03/18 09:41:27;;;;;;;31.87;16.30;;;;;;;;;;5072947;28;20185;-79
2021/03/18 09:44:07;;;;;;;35.10;16.17;;;;;;;;;;5065357;28;20576;-77
2021/03/18 09:46:33;;;;;;;27.57;14.27;;;;;;;;;;5057291;28;20184;-80
2021/03/18 09:48:59;;;;;;;30.57;14.37;;;;;;;;;;5055204;28;20592;-82
2021/03/18 09:51:25;;;;;;;31.00;14.27;;;;;;;;;;5057173;28;20226;-75
2021/03/18 09:53:55;;;;;;;31.00;14.77;;;;;;;;;;5068380;28;20380;-77
2021/03/18 09:56:21;;;;;;;27.93;15.00;;;;;;;;;;5051944;28;20178;-77
2021/03/18 09:58:48;;;;;;;31.57;15.10;;;;;;;;;;5066142;28;20707;-76
2021/03/18 10:01:17;;;;;;;25.97;13.70;;;;;;;;;;5047563;28;20266;-76
2021/03/18 10:03:56;;;;;;;27.03;13.67;;;;;;;;;;5062550;28;20242;-77
2021/03/18 10:06:26;;;;;;;25.20;12.83;;;;;;;;;;5070866;28;20175;-77
2021/03/18 10:08:52;;;;;;;26.90;13.43;;;;;;;;;;5048059;28;20189;-77
2021/03/18 10:11:18;;;;;;;26.33;13.57;;;;;;;;;;5074530;28;20230;-77
2021/03/18 10:13:44;;;;;;;25.40;12.77;;;;;;;;;;5072819;28;20212;-77
2021/03/18 10:16:10;;;;;;;24.67;12.87;;;;;;;;;;5071342;28;20705;-77
2021/03/18 10:18:36;;;;;;;24.17;12.23;;;;;;;;;;5068760;28;20234;-76
2021/03/18 10:21:03;;;;;;;25.83;12.20;;;;;;;;;;5052223;28;20206;-80
2021/03/18 10:23:29;;;;;;;23.97;12.40;;;;;;;;;;5043326;28;20239;-76
2021/03/18 10:25:55;;;;;;;29.03;13.00;;;;;;;;;;5060936;28;20173;-75
2021/03/18 10:28:23;;;;;;;24.83;13.17;;;;;;;;;;5073498;28;20184;-75
2021/03/18 10:30:49;;;;;;;26.80;12.00;;;;;;;;;;5056550;28;20185;-75
2021/03/18 10:33:16;;;;;;;25.97;12.77;;;;;;;;;;5069359;28;20307;-75
2021/03/18 10:35:43;;;;;;;22.03;12.17;;;;;;;;;;5049085;28;20262;-74
2021/03/18 10:38:14;;;;;;;25.00;12.00;;;;;;;;;;5067661;28;20192;-77
2021/03/18 10:40:47;;;;;;;26.67;12.53;;;;;;;;;;5073828;28;20298;-77
2021/03/18 10:43:32;;;;;;;24.37;13.37;;;;;;;;;;5062575;28;20253;-78
2021/03/18 10:45:59;;;;;;;24.80;12.60;;;;;;;;;;5070811;28;20184;-77
2021/03/18 10:48:26;;;;;;;20.47;11.60;;;;;;;;;;5072803;28;20181;-75
2021/03/18 10:50:52;;;;;;;22.90;11.60;;;;;;;;;;5041775;28;20261;-75
2021/03/18 10:53:19;;;;;;;22.97;12.40;;;;;;;;;;5069458;28;20232;-75
2021/03/18 10:55:50;;;;;;;20.37;11.13;;;;;;;;;;5058622;28;20564;-75
2021/03/18 10:58:17;;;;;;;20.73;12.10;;;;;;;;;;5062889;28;20277;-74
2021/03/18 11:00:43;;;;;;;23.03;12.20;;;;;;;;;;5072861;28;20217;-77
2021/03/18 11:03:13;;;;;;;18.33;11.30;;;;;;;;;;5054469;28;20216;-76
2021/03/18 11:05:49;;;;;;;23.07;11.27;;;;;;;;;;5040653;28;20272;-74
2021/03/18 11:08:16;;;;;;;21.30;12.13;;;;;;;;;;5045311;28;20207;-74
2021/03/18 11:10:43;;;;;;;21.23;11.50;;;;;;;;;;5068379;28;20196;-77
2021/03/18 11:13:11;;;;;;;18.67;10.03;;;;;;;;;;5048565;28;20206;-77
2021/03/18 11:15:58;;;;;;;23.77;10.87;;;;;;;;;;5050427;28;20556;-75
2021/03/18 11:18:37;;;;;;;23.20;10.93;;;;;;;;;;5064216;28;20190;-75
2021/03/18 11:21:04;;;;;;;22.83;10.83;;;;;;;;;;5060849;28;20257;-81
2021/03/18 11:23:34;;;;;;;20.70;11.33;;;;;;;;;;5052624;28;20203;-77
2021/03/18 11:26:01;;;;;;;22.13;11.63;;;;;;;;;;5072891;28;20199;-74
2021/03/18 11:28:27;;;;;;;25.80;11.90;;;;;;;;;;5072001;28;20188;-74
2021/03/18 11:30:56;;;;;;;21.17;11.03;;;;;;;;;;5057064;28;20185;-74
2021/03/18 11:33:22;;;;;;;19.30;9.80;;;;;;;;;;5068885;28;20299;-80
2021/03/18 11:35:49;;;;;;;16.07;8.53;;;;;;;;;;5054506;28;20635;-79
2021/03/18 11:38:15;;;;;;;19.23;9.10;;;;;;;;;;5054726;28;20185;-80
2021/03/18 11:40:44;;;;;;;15.90;7.70;;;;;;;;;;5054927;28;20260;-79
2021/03/18 11:43:10;;;;;;;17.00;8.80;;;;;;;;;;5054761;28;20205;-73
2021/03/18 11:45:36;;;;;;;16.20;8.27;;;;;;;;;;5070894;28;20176;-75
2021/03/18 11:48:02;;;;;;;14.53;8.07;;;;;;;;;;5072316;28;20179;-74
2021/03/18 11:50:28;;;;;;;20.13;8.70;;;;;;;;;;5071588;28;20178;-76
2021/03/18 11:52:54;;;;;;;14.40;8.13;;;;;;;;;;5070991;28;20730;-76
2021/03/18 11:55:21;;;;;;;14.87;8.10;;;;;;;;;;5053656;28;20549;-75
2021/03/18 11:57:47;;;;;;;14.57;7.40;;;;;;;;;;5069239;28;20532;-75
2021/03/18 12:00:14;;;;;;;14.40;7.10;;;;;;;;;;5059785;28;20254;-75
2021/03/18 12:02:40;;;;;;;15.57;7.53;;;;;;;;;;5054731;28;20198;-74
2021/03/18 12:05:06;;;;;;;13.57;7.30;;;;;;;;;;5070864;28;20269;-77
2021/03/18 12:07:32;;;;;;;11.90;7.07;;;;;;;;;;5060871;28;20669;-76
2021/03/18 12:09:58;;;;;;;9.80;6.23;;;;;;;;;;5071373;28;20231;-77
2021/03/18 12:12:24;;;;;;;13.50;6.87;;;;;;;;;;5070585;28;20198;-75
2021/03/18 12:14:50;;;;;;;12.37;7.00;;;;;;;;;;5072430;28;20678;-78
2021/03/18 12:17:16;;;;;;;11.57;5.93;;;;;;;;;;5070273;28;20180;-77
2021/03/18 12:19:42;;;;;;;10.50;6.07;;;;;;;;;;5062083;28;20607;-79
2021/03/18 12:22:08;;;;;;;13.23;5.73;;;;;;;;;;5046775;28;20205;-79
2021/03/18 12:24:34;;;;;;;8.33;5.20;;;;;;;;;;5054608;28;20200;-78
2021/03/18 12:27:00;;;;;;;9.80;5.73;;;;;;;;;;5071792;28;20214;-83
2021/03/18 12:29:26;;;;;;;8.10;5.50;;;;;;;;;;5063588;28;20188;-81
2021/03/18 12:31:52;;;;;;;11.23;5.50;;;;;;;;;;5047587;28;20177;-83
2021/03/18 12:34:19;;;;;;;8.60;5.10;;;;;;;;;;5054195;28;20182;-82
2021/03/18 12:36:45;;;;;;;8.80;5.37;;;;;;;;;;5076245;28;20181;-81
2021/03/18 12:39:11;;;;;;;8.23;5.73;;;;;;;;;;5044730;28;20182;-84
2021/03/18 12:41:38;;;;;;;10.17;5.77;;;;;;;;;;5060224;28;20196;-82
2021/03/18 12:44:04;;;;;;;8.70;5.40;;;;;;;;;;5044046;28;20202;-81
2021/03/18 12:46:30;;;;;;;9.60;4.80;;;;;;;;;;5037602;28;20176;-82
2021/03/18 12:48:56;;;;;;;6.90;4.97;;;;;;;;;;5051420;28;20264;-83
2021/03/18 12:51:22;;;;;;;8.90;5.27;;;;;;;;;;5040822;28;20174;-83
2021/03/18 12:53:48;;;;;;;9.50;4.97;;;;;;;;;;5050486;28;20223;-83
2021/03/18 12:56:14;;;;;;;9.40;5.53;;;;;;;;;;5056146;28;20227;-84
2021/03/18 12:58:41;;;;;;;10.10;5.90;;;;;;;;;;5055268;28;20722;-82
2021/03/18 13:01:08;;;;;;;9.30;5.87;;;;;;;;;;5055374;28;20205;-83
2021/03/18 13:03:36;;;;;;;8.10;5.00;;;;;;;;;;5057366;28;20650;-82
2021/03/18 13:06:02;;;;;;;9.27;5.03;;;;;;;;;;5056419;28;20174;-78
2021/03/18 13:08:28;;;;;;;9.27;4.80;;;;;;;;;;5056253;28;20183;-78
2021/03/18 13:10:54;;;;;;;8.53;4.90;;;;;;;;;;5065591;28;20185;-78
2021/03/18 13:13:20;;;;;;;7.03;4.80;;;;;;;;;;5048551;28;20269;-81
2021/03/18 13:15:46;;;;;;;6.33;4.43;;;;;;;;;;5049890;28;20181;-82
2021/03/18 13:18:12;;;;;;;8.37;5.03;;;;;;;;;;5046345;28;20269;-81
2021/03/18 13:20:38;;;;;;;8.87;4.77;;;;;;;;;;5068501;28;20194;-79
2021/03/18 13:23:04;;;;;;;5.90;4.70;;;;;;;;;;5037143;28;20206;-79
2021/03/18 13:25:30;;;;;;;7.67;5.10;;;;;;;;;;5053944;28;20178;-79
2021/03/18 13:27:56;;;;;;;9.27;5.03;;;;;;;;;;5047987;28;20213;-79
2021/03/18 13:30:22;;;;;;;6.67;4.70;;;;;;;;;;5050071;28;20202;-79
2021/03/18 13:32:48;;;;;;;8.23;5.10;;;;;;;;;;5053343;28;20257;-77
2021/03/18 13:35:14;;;;;;;10.47;5.23;;;;;;;;;;5070751;28;20177;-77
2021/03/18 13:37:40;;;;;;;9.40;5.10;;;;;;;;;;5054274;28;20525;-83
2021/03/18 13:40:06;;;;;;;9.27;5.60;;;;;;;;;;5069591;28;20198;-82
2021/03/18 13:42:32;;;;;;;6.83;4.70;;;;;;;;;;5046080;28;20696;-81
2021/03/18 13:44:58;;;;;;;10.03;5.67;;;;;;;;;;5055470;28;20268;-82
2021/03/18 13:47:24;;;;;;;9.67;5.37;;;;;;;;;;5073709;28;20208;-81
2021/03/18 13:49:50;;;;;;;10.10;5.30;;;;;;;;;;5049319;28;20185;-77
2021/03/18 13:52:16;;;;;;;10.20;6.33;;;;;;;;;;5046666;28;20701;-78
2021/03/18 13:54:42;;;;;;;11.00;5.87;;;;;;;;;;5069199;28;20200;-77
2021/03/18 13:57:09;;;;;;;9.23;5.67;;;;;;;;;;5062533;28;20260;-75
2021/03/18 13:59:35;;;;;;;8.73;6.07;;;;;;;;;;5073701;28;20581;-75
2021/03/18 14:02:01;;;;;;;8.73;5.90;;;;;;;;;;5073803;28;20216;-80
2021/03/18 14:04:27;;;;;;;6.63;5.03;;;;;;;;;;5077149;28;20204;-80